Cumberland, Virginia
Current Conditions -  °F | °C
As of 12:35 PM on Tuesday 21 Oct 2014 (Local Time) from KFVX Reporting Station
Clear Clear  
Wind Chill: 70°   Ceiling: Unl
Heat Index: 70°   Visibility: 10mi
Dew Point: 48°   Wind: 6mph
Humidity: 46%   Direction: 190°S
Pressure: 29.85"   Gusts: NA
Location:  37.5°N, 78.24°W
Report Text: KFVX 211635Z AUTO 19005KT 10SM CLR 21/09 A2985 RMK AO2 LTG DSNT SE
Loading
Personal Weather Stations






























Interactive Weather Map
Tropical Storm Tracking
New forecast layout! Learn more

10-Day Weather Forecast

Advertisements
Track Severe Weather on mobile